This is the latest recevied weather packets stored in our database for station/object VE2JJ-13. If no packets are shown the sender has not sent any weather packets the latest 10 day(s).
| Time | Temp. | Humidity | Pressure | Rain* | Wind** | Luminosity | Snow |
|---|---|---|---|---|---|---|---|
| 1777920085 | 16.11° C | 59% | 997.4 hPa | 0 mm | - | - | - |
| 1777919785 | 16.67° C | 59% | 997.4 hPa | 0 mm | - | - | - |
| 1777919455 | 15.56° C | 61% | 997.4 hPa | 0 mm | - | - | - |
| 1777919154 | 15° C | 62% | 997.4 hPa | 0 mm | - | - | - |
| 1777918824 | 15° C | 62% | 997.4 hPa | 0 mm | - | - | - |
| 1777918528 | 15° C | 62% | 997.6 hPa | 0 mm | - | - | - |
| 1777918197 | 14.44° C | 63% | 997.6 hPa | 0 mm | - | - | - |
| 1777917894 | 15° C | 63% | 997.7 hPa | 0 mm | - | - | - |
| 1777917238 | 15° C | 64% | 997.7 hPa | 0 mm | - | - | - |
| 1777916606 | 15.56° C | 62% | 997.8 hPa | 0 mm | - | - | - |
| 1777916310 | 15° C | 64% | 997.9 hPa | 0 mm | - | - | - |
| 1777916007 | 14.44° C | 65% | 997.9 hPa | 0 mm | - | - | - |
| 1777915674 | 15° C | 65% | 997.9 hPa | 0 mm | - | - | - |
| 1777915374 | 14.44° C | 66% | 997.9 hPa | 0 mm | - | - | - |
| 1777915077 | 14.44° C | 65% | 997.9 hPa | 0 mm | - | - | - |
| 1777914415 | 14.44° C | 65% | 997.9 hPa | 0 mm | - | - | - |
| 1777914086 | 15° C | 66% | 997.8 hPa | 0 mm | - | - | - |
| 1777913756 | 14.44° C | 67% | 997.8 hPa | 0 mm | - | - | - |
| 1777913458 | 14.44° C | 67% | 997.9 hPa | 0 mm | - | - | - |
| 1777913124 | 14.44° C | 66% | 997.9 hPa | 0 mm | - | - | - |
| 1777912828 | 13.33° C | 68% | 997.8 hPa | 0 mm | - | - | - |
| 1777912524 | 13.33° C | 70% | 997.8 hPa | 0 mm | - | - | - |
| 1777912194 | 13.33° C | 69% | 997.8 hPa | 0 mm | - | - | - |
| 1777911894 | 13.33° C | 69% | 997.9 hPa | 0 mm | - | - | - |
| 1777911268 | 13.33° C | 72% | 997.8 hPa | 0 mm | - | - | - |
* Rain latest hour (hover to see other rain measurements)
** Current wind speed in m/s (hover to see current wind gust speed)